createdAt,value
2022-09-12T00:01:33.051Z,5.05
2022-09-12T00:04:01.808Z,5.15
2022-09-12T00:06:31.092Z,5.68
2022-09-12T00:09:00.283Z,6.05
2022-09-12T00:11:26.812Z,6.07
2022-09-12T00:13:57.485Z,5.57
2022-09-12T00:16:25.958Z,5.30
2022-09-12T00:18:53.567Z,8.73
2022-09-12T00:21:21.390Z,5.85
2022-09-12T00:23:48.530Z,6.18
2022-09-12T00:26:15.455Z,5.90
2022-09-12T00:28:42.230Z,5.80
2022-09-12T00:31:17.588Z,5.82
2022-09-12T00:33:44.958Z,5.45
2022-09-12T00:36:15.291Z,5.72
2022-09-12T00:38:42.562Z,5.18
2022-09-12T00:41:18.967Z,7.07
2022-09-12T00:44:23.957Z,5.25
2022-09-12T00:46:52.755Z,5.75
2022-09-12T00:49:45.637Z,5.85
2022-09-12T00:52:15.754Z,6.15
2022-09-12T00:54:50.199Z,6.88
2022-09-12T00:57:19.269Z,9.00
2022-09-12T00:59:52.383Z,5.45
2022-09-12T01:02:18.944Z,8.02
2022-09-12T01:04:45.545Z,7.18
2022-09-12T01:07:12.853Z,5.68
2022-09-12T01:09:40.759Z,5.40
2022-09-12T01:12:07.464Z,5.88
2022-09-12T01:14:34.664Z,6.47
2022-09-12T01:17:01.703Z,6.20
2022-09-12T01:19:42.746Z,6.10
2022-09-12T01:22:25.348Z,7.20
2022-09-12T01:25:27.398Z,7.05
2022-09-12T01:28:24.170Z,6.20
2022-09-12T01:31:04.123Z,6.88
2022-09-12T01:33:36.623Z,6.68
2022-09-12T01:36:20.368Z,6.53
2022-09-12T01:38:52.615Z,6.50
2022-09-12T01:41:33.729Z,6.35
2022-09-12T01:44:12.885Z,8.10
2022-09-12T01:46:42.832Z,5.85
2022-09-12T01:49:19.711Z,5.68
2022-09-12T01:51:57.378Z,7.55
2022-09-12T01:54:54.591Z,7.40
2022-09-12T01:57:30.087Z,5.97
2022-09-12T02:00:01.870Z,6.25
2022-09-12T02:05:09.473Z,6.47
2022-09-12T02:07:44.923Z,6.63
2022-09-12T02:10:19.196Z,6.90
2022-09-12T02:12:57.633Z,7.07
2022-09-12T02:15:32.516Z,7.20
2022-09-12T02:18:04.462Z,7.65
2022-09-12T02:20:47.977Z,7.15
2022-09-12T02:23:31.338Z,8.32
2022-09-12T02:26:03.296Z,7.32
2022-09-12T02:28:34.700Z,7.63
2022-09-12T02:31:23.113Z,6.82
2022-09-12T02:34:08.881Z,7.10
2022-09-12T02:36:39.977Z,7.45
2022-09-12T02:39:06.690Z,11.65
2022-09-12T02:41:33.148Z,7.85
2022-09-12T02:43:59.609Z,7.15
2022-09-12T02:46:37.764Z,7.82
2022-09-12T02:49:04.483Z,8.73
2022-09-12T02:51:31.224Z,6.88
2022-09-12T02:53:57.831Z,7.18
2022-09-12T02:56:28.085Z,7.53
2022-09-12T02:58:58.756Z,8.00
2022-09-12T03:02:28.062Z,8.85
2022-09-12T03:05:03.373Z,6.85
2022-09-12T03:07:38.541Z,10.48
2022-09-12T03:10:15.317Z,8.98
2022-09-12T03:13:07.836Z,7.45
2022-09-12T03:15:54.725Z,7.38
2022-09-12T03:18:48.118Z,7.50
2022-09-12T03:21:20.966Z,8.05
2022-09-12T03:24:09.172Z,7.80
2022-09-12T03:26:39.820Z,10.45
2022-09-12T03:29:08.503Z,8.55
2022-09-12T03:31:35.015Z,14.35
2022-09-12T03:34:01.412Z,10.77
2022-09-12T03:36:29.857Z,9.55
2022-09-12T03:38:56.531Z,11.88
2022-09-12T03:41:22.915Z,11.15
2022-09-12T03:43:49.314Z,12.10
2022-09-12T03:46:15.729Z,12.65
2022-09-12T03:48:42.130Z,11.85
2022-09-12T03:51:10.420Z,12.82
2022-09-12T03:53:37.185Z,11.70
2022-09-12T03:56:11.061Z,12.50
2022-09-12T03:58:37.884Z,13.75
2022-09-12T04:01:12.387Z,11.93
2022-09-12T04:03:40.888Z,12.27
2022-09-12T04:06:08.807Z,13.43
2022-09-12T04:08:36.487Z,13.13
2022-09-12T04:11:08.403Z,12.40
2022-09-12T04:13:36.669Z,12.02
2022-09-12T04:16:04.582Z,10.93
2022-09-12T04:18:32.204Z,12.43
2022-09-12T04:20:59.257Z,14.70
2022-09-12T04:23:25.619Z,16.40
2022-09-12T04:26:00.134Z,11.77
2022-09-12T04:28:28.929Z,12.82
2022-09-12T04:30:56.376Z,12.00
2022-09-12T04:33:22.794Z,11.82
2022-09-12T04:35:50.173Z,13.57
2022-09-12T04:38:16.634Z,11.75
2022-09-12T04:40:43.049Z,12.57
2022-09-12T04:43:14.272Z,15.05
2022-09-12T04:45:41.006Z,12.40
2022-09-12T04:48:07.451Z,12.55
2022-09-12T04:50:33.815Z,13.60
2022-09-12T04:53:00.252Z,11.15
2022-09-12T04:55:26.724Z,17.98
2022-09-12T04:57:53.132Z,11.73
2022-09-12T05:00:19.847Z,15.95
2022-09-12T05:02:46.473Z,13.25
2022-09-12T05:05:13.042Z,14.23
2022-09-12T05:07:39.434Z,13.13
2022-09-12T05:10:06.247Z,14.07
2022-09-12T05:12:32.744Z,13.10
2022-09-12T05:14:59.161Z,13.68
2022-09-12T05:17:25.542Z,13.63
2022-09-12T05:19:52.120Z,12.40
2022-09-12T05:22:18.513Z,11.02
2022-09-12T05:24:49.864Z,12.38
2022-09-12T05:27:16.997Z,15.05
2022-09-12T05:29:43.413Z,13.13
2022-09-12T05:32:09.810Z,13.02
2022-09-12T05:34:37.677Z,15.48
2022-09-12T05:37:04.214Z,11.32
2022-09-12T05:39:30.597Z,10.18
2022-09-12T05:41:57.027Z,11.20
2022-09-12T05:44:24.799Z,14.32
2022-09-12T05:46:53.468Z,18.25
2022-09-12T05:49:21.381Z,14.52
2022-09-12T05:51:47.760Z,14.20
2022-09-12T05:54:17.855Z,13.32
2022-09-12T05:56:44.766Z,15.95
2022-09-12T05:59:12.442Z,15.82
2022-09-12T06:01:39.361Z,15.70
2022-09-12T06:04:06.943Z,14.93
2022-09-12T06:06:37.494Z,13.68
2022-09-12T06:09:05.455Z,14.25
2022-09-12T06:11:34.078Z,12.05
2022-09-12T06:14:01.174Z,17.23
2022-09-12T06:16:30.973Z,14.05
2022-09-12T06:19:03.039Z,12.73
2022-09-12T06:21:34.493Z,13.75
2022-09-12T06:24:01.604Z,18.23
2022-09-12T06:26:29.165Z,18.10
2022-09-12T06:28:56.976Z,14.88
2022-09-12T06:31:26.366Z,21.23
2022-09-12T06:33:54.110Z,25.98
2022-09-12T06:36:22.407Z,18.48
2022-09-12T06:38:53.572Z,17.60
2022-09-12T06:41:19.965Z,19.67
2022-09-12T06:43:46.487Z,23.38
2022-09-12T06:46:13.093Z,25.50
2022-09-12T06:48:42.057Z,23.88
2022-09-12T06:51:14.939Z,33.13
2022-09-12T06:53:44.619Z,31.70
2022-09-12T06:56:13.998Z,35.35
2022-09-12T06:58:41.877Z,37.17
2022-09-12T07:01:17.757Z,40.22
2022-09-12T07:03:48.918Z,37.10
2022-09-12T07:06:17.419Z,43.50
2022-09-12T07:08:44.448Z,42.88
2022-09-12T07:11:22.868Z,39.40
2022-09-12T07:13:51.992Z,43.92
2022-09-12T07:16:20.100Z,44.63
2022-09-12T07:18:54.931Z,41.72
2022-09-12T07:21:21.917Z,47.63
2022-09-12T07:23:49.157Z,40.28
2022-09-12T07:26:16.548Z,38.80
2022-09-12T07:28:43.563Z,43.33
2022-09-12T07:31:13.178Z,42.03
2022-09-12T07:33:40.482Z,42.38
2022-09-12T07:36:11.497Z,38.35
2022-09-12T07:38:38.833Z,45.33
2022-09-12T07:41:20.956Z,42.45
2022-09-12T07:43:48.200Z,41.13
2022-09-12T07:46:14.886Z,40.42
2022-09-12T07:48:41.314Z,42.25
2022-09-12T07:51:10.799Z,35.58
2022-09-12T07:53:40.049Z,42.38
2022-09-12T07:56:08.049Z,41.08
2022-09-12T07:58:36.485Z,41.17
2022-09-12T08:01:04.842Z,40.67
2022-09-12T08:03:31.517Z,38.35
2022-09-12T08:06:09.697Z,38.25
2022-09-12T08:08:36.543Z,37.88
2022-09-12T08:11:05.953Z,32.83
2022-09-12T08:13:34.645Z,35.38
2022-09-12T08:16:04.483Z,31.90
2022-09-12T08:18:32.596Z,32.20
2022-09-12T08:21:00.604Z,34.95
2022-09-12T08:23:28.590Z,31.52
2022-09-12T08:26:01.367Z,33.03
2022-09-12T08:28:32.569Z,35.50
2022-09-12T08:31:07.116Z,30.00
2022-09-12T08:33:34.438Z,26.25
2022-09-12T08:36:04.363Z,32.53
2022-09-12T08:38:30.758Z,27.35
2022-09-12T08:41:14.115Z,26.88
2022-09-12T08:44:00.567Z,27.17
2022-09-12T08:47:05.655Z,22.52
2022-09-12T08:49:33.600Z,26.00
2022-09-12T08:52:05.888Z,30.17
2022-09-12T08:54:33.217Z,27.48
2022-09-12T08:57:03.880Z,25.80
2022-09-12T08:59:39.625Z,29.70
2022-09-12T09:02:45.786Z,22.92
2022-09-12T09:05:30.854Z,29.35
2022-09-12T09:08:21.899Z,23.10
2022-09-12T09:11:12.781Z,22.75
2022-09-12T09:14:39.477Z,27.73
2022-09-12T09:17:13.037Z,21.85
2022-09-12T09:19:50.943Z,20.35
2022-09-12T09:22:36.407Z,23.55
2022-09-12T09:25:11.143Z,26.05
2022-09-12T09:27:51.888Z,23.75
2022-09-12T09:30:21.452Z,22.85
2022-09-12T09:32:55.089Z,20.67
2022-09-12T09:35:44.870Z,17.35
2022-09-12T09:38:45.039Z,20.40
2022-09-12T09:41:27.205Z,16.20
2022-09-12T09:43:53.743Z,17.67
2022-09-12T09:46:20.414Z,17.02
2022-09-12T09:48:50.376Z,19.80
2022-09-12T09:51:22.303Z,17.35
2022-09-12T09:53:54.847Z,15.77
2022-09-12T09:56:40.063Z,44.28
2022-09-12T09:59:12.500Z,19.38
2022-09-12T10:01:51.401Z,19.05
2022-09-12T10:04:24.267Z,19.08
2022-09-12T10:06:52.488Z,19.08
2022-09-12T10:09:22.866Z,17.98
2022-09-12T10:11:50.960Z,16.92
2022-09-12T10:14:37.677Z,19.92
2022-09-12T10:17:22.749Z,19.88
2022-09-12T10:19:59.879Z,16.13
2022-09-12T10:22:35.573Z,15.10
2022-09-12T10:25:02.351Z,19.65
2022-09-12T10:27:32.314Z,15.82
2022-09-12T10:30:01.836Z,13.23
2022-09-12T10:32:43.731Z,15.38
2022-09-12T10:35:28.403Z,13.02
2022-09-12T10:37:54.727Z,14.10
2022-09-12T10:40:27.667Z,19.42
2022-09-12T10:42:57.204Z,16.27
2022-09-12T10:45:26.281Z,13.38
2022-09-12T10:47:54.756Z,12.80
2022-09-12T10:50:24.021Z,14.30
2022-09-12T10:52:50.952Z,11.82
2022-09-12T10:55:17.528Z,11.70
2022-09-12T10:57:58.984Z,11.98
2022-09-12T11:03:22.049Z,8.95
2022-09-12T11:05:55.944Z,8.80
2022-09-12T11:08:48.772Z,8.57
2022-09-12T11:11:32.140Z,9.63
2022-09-12T11:14:21.656Z,8.00
2022-09-12T11:17:09.705Z,6.68
2022-09-12T11:19:42.127Z,6.20
2022-09-12T11:22:36.565Z,6.07
2022-09-12T11:25:41.640Z,6.47
2022-09-12T11:28:28.820Z,8.27
2022-09-12T11:31:20.358Z,5.88
2022-09-12T11:33:56.693Z,5.40
2022-09-12T11:36:33.024Z,6.15
2022-09-12T11:39:13.205Z,5.45
2022-09-12T11:41:47.940Z,5.70
2022-09-12T11:44:17.386Z,4.88
2022-09-12T11:46:47.616Z,5.25
2022-09-12T11:49:39.871Z,4.70
2022-09-12T11:52:25.274Z,5.55
2022-09-12T11:55:05.854Z,5.15
2022-09-12T11:57:43.910Z,4.75
2022-09-12T12:00:17.747Z,5.65
2022-09-12T12:02:59.276Z,9.18
2022-09-12T12:08:14.553Z,5.18
2022-09-12T12:10:43.812Z,5.10
2022-09-12T12:13:23.724Z,4.78
2022-09-12T12:15:55.085Z,5.20
2022-09-12T12:20:53.209Z,4.78
2022-09-12T12:23:26.952Z,5.72
2022-09-12T12:25:56.731Z,4.63
2022-09-12T12:28:41.122Z,5.45
2022-09-12T12:31:09.489Z,7.15
2022-09-12T12:33:38.825Z,4.15
2022-09-12T12:36:09.194Z,3.85
2022-09-12T12:38:40.734Z,4.72
2022-09-12T12:41:19.170Z,6.78
2022-09-12T12:43:54.454Z,4.45
2022-09-12T12:46:22.668Z,5.20
2022-09-12T12:49:08.346Z,4.50
2022-09-12T12:51:56.492Z,3.83
2022-09-12T12:54:32.727Z,4.25
2022-09-12T12:57:17.708Z,9.32
2022-09-12T12:59:55.480Z,4.93
2022-09-12T13:02:31.698Z,6.80
2022-09-12T13:05:01.271Z,7.65
2022-09-12T13:07:32.750Z,7.25
2022-09-12T13:10:01.329Z,3.70
2022-09-12T13:12:32.633Z,5.95
2022-09-12T13:15:00.546Z,4.07
2022-09-12T13:17:39.143Z,4.30
2022-09-12T13:20:28.754Z,4.88
2022-09-12T13:22:57.286Z,3.67
2022-09-12T13:25:36.859Z,4.50
2022-09-12T13:28:15.611Z,3.85
2022-09-12T13:31:06.830Z,3.88
2022-09-12T13:33:42.559Z,11.38
2022-09-12T13:36:27.827Z,3.50
2022-09-12T13:38:54.416Z,3.42
2022-09-12T13:41:49.067Z,3.47
2022-09-12T13:44:19.286Z,3.58
2022-09-12T13:46:46.453Z,6.28
2022-09-12T13:49:22.536Z,5.13
2022-09-12T13:52:09.297Z,5.57
2022-09-12T13:54:38.839Z,4.25
2022-09-12T13:57:05.906Z,3.90
2022-09-12T13:59:42.665Z,4.50
2022-09-12T14:02:23.668Z,4.47
2022-09-12T14:05:08.929Z,4.65
2022-09-12T14:07:46.506Z,7.97
2022-09-12T14:10:18.236Z,4.30
2022-09-12T14:12:50.654Z,5.20
2022-09-12T14:17:51.990Z,3.65
2022-09-12T14:20:20.209Z,3.50
2022-09-12T14:22:50.565Z,3.50
2022-09-12T14:25:20.465Z,3.88
2022-09-12T14:27:52.451Z,4.20
2022-09-12T14:30:30.298Z,4.05
2022-09-12T14:33:11.685Z,4.10
2022-09-12T14:35:43.602Z,3.67
2022-09-12T14:38:23.984Z,3.90
2022-09-12T14:40:58.964Z,3.58
2022-09-12T14:43:27.807Z,3.10
2022-09-12T14:46:00.237Z,3.90
2022-09-12T14:48:30.685Z,4.10
2022-09-12T14:50:57.864Z,3.08
2022-09-12T14:53:30.849Z,5.05
2022-09-12T14:56:11.851Z,3.33
2022-09-12T14:58:40.437Z,7.80
2022-09-12T15:01:07.127Z,3.55
2022-09-12T15:03:37.988Z,3.67
2022-09-12T15:06:07.916Z,4.07
2022-09-12T15:08:34.540Z,4.28
2022-09-12T15:11:00.967Z,4.72
2022-09-12T15:13:28.914Z,3.40
2022-09-12T15:15:57.333Z,2.85
2022-09-12T15:18:29.095Z,3.83
2022-09-12T15:21:07.585Z,3.42
2022-09-12T15:23:52.781Z,4.05
2022-09-12T15:26:22.488Z,6.75
2022-09-12T15:28:49.997Z,3.45
2022-09-12T15:31:25.787Z,3.60
2022-09-12T15:33:53.034Z,4.22
2022-09-12T15:36:22.839Z,3.38
2022-09-12T15:38:49.725Z,3.22
2022-09-12T15:41:19.148Z,3.35
2022-09-12T15:43:46.569Z,3.85
2022-09-12T15:46:14.768Z,5.68
2022-09-12T15:48:41.356Z,3.72
2022-09-12T15:51:15.971Z,3.00
2022-09-12T15:53:43.372Z,4.72
2022-09-12T15:56:10.025Z,3.10
2022-09-12T15:58:36.742Z,4.00
2022-09-12T16:01:04.221Z,3.67
2022-09-12T16:03:30.919Z,2.80
2022-09-12T16:05:59.319Z,3.45
2022-09-12T16:08:25.823Z,2.88
2022-09-12T16:10:58.816Z,2.70
2022-09-12T16:13:25.855Z,2.65
2022-09-12T16:15:52.769Z,2.60
2022-09-12T16:18:19.231Z,2.95
2022-09-12T16:20:45.673Z,2.80
2022-09-12T16:23:13.435Z,3.80
2022-09-12T16:25:40.529Z,2.72
2022-09-12T16:28:07.323Z,3.40
2022-09-12T16:30:33.987Z,3.83
2022-09-12T16:33:00.598Z,3.25
2022-09-12T16:35:27.224Z,6.47
2022-09-12T16:37:53.700Z,4.53
2022-09-12T16:40:20.224Z,4.10
2022-09-12T16:42:46.726Z,3.22
2022-09-12T16:45:13.542Z,4.65
2022-09-12T16:47:40.076Z,7.00
2022-09-12T16:50:07.203Z,4.82
2022-09-12T16:52:34.618Z,4.43
2022-09-12T16:55:00.993Z,4.15
2022-09-12T16:57:27.368Z,5.10
2022-09-12T16:59:53.735Z,4.30
2022-09-12T17:02:20.498Z,4.20
2022-09-12T17:04:46.896Z,3.20
2022-09-12T17:07:13.304Z,2.80
2022-09-12T17:09:39.696Z,2.75
2022-09-12T17:12:06.485Z,3.05
2022-09-12T17:14:33.005Z,2.83
2022-09-12T17:16:59.474Z,2.85
2022-09-12T17:19:29.486Z,2.90
2022-09-12T17:21:57.028Z,5.55
2022-09-12T17:24:24.076Z,4.20
2022-09-12T17:26:51.011Z,2.55
2022-09-12T17:29:17.940Z,2.75
2022-09-12T17:31:45.274Z,2.60
2022-09-12T17:34:14.305Z,3.28
2022-09-12T17:36:44.111Z,3.50
2022-09-12T17:39:11.770Z,4.07
2022-09-12T17:41:38.424Z,3.65
2022-09-12T17:44:07.238Z,4.18
2022-09-12T17:46:36.686Z,6.60
2022-09-12T17:49:15.047Z,3.72
2022-09-12T17:51:43.758Z,3.65
2022-09-12T17:54:13.912Z,3.90
2022-09-12T17:56:40.375Z,3.22
2022-09-12T17:59:08.048Z,3.85
2022-09-12T18:01:54.165Z,3.60
2022-09-12T18:04:20.844Z,234.38
2022-09-12T18:06:50.077Z,262.60
2022-09-12T18:09:21.961Z,84.82
2022-09-12T18:11:49.053Z,27.42
2022-09-12T18:14:15.682Z,21.38
2022-09-12T18:16:43.105Z,7.55
2022-09-12T18:19:10.993Z,4.93
2022-09-12T18:21:37.770Z,8.07
2022-09-12T18:24:04.796Z,4.35
2022-09-12T18:26:31.702Z,3.53
2022-09-12T18:28:58.691Z,3.30
2022-09-12T18:31:28.701Z,3.67
2022-09-12T18:33:56.261Z,3.90
2022-09-12T18:36:23.444Z,3.60
2022-09-12T18:38:49.917Z,3.55
2022-09-12T18:41:21.609Z,3.45
2022-09-12T18:43:53.160Z,5.53
2022-09-12T18:48:46.705Z,3.50
2022-09-12T18:51:16.447Z,3.60
2022-09-12T18:53:43.493Z,4.07
2022-09-12T18:56:12.811Z,4.68
2022-09-12T18:58:41.955Z,4.53
2022-09-12T19:01:17.047Z,6.03
2022-09-12T19:03:44.099Z,4.78
2022-09-12T19:06:12.742Z,4.38
2022-09-12T19:08:39.955Z,6.43
2022-09-12T19:11:07.720Z,4.80
2022-09-12T19:13:37.026Z,5.80
2022-09-12T19:16:05.162Z,4.15
2022-09-12T19:18:33.523Z,4.22
2022-09-12T19:21:01.382Z,4.95
2022-09-12T19:23:27.781Z,5.88
2022-09-12T19:25:59.094Z,5.35
2022-09-12T19:28:25.625Z,4.03
2022-09-12T19:30:53.192Z,4.05
2022-09-12T19:33:19.951Z,5.05
2022-09-12T19:35:46.621Z,4.38
2022-09-12T19:38:13.464Z,4.57
2022-09-12T19:40:39.957Z,6.45
2022-09-12T19:43:07.291Z,5.47
2022-09-12T19:45:33.956Z,4.30
2022-09-12T19:48:00.917Z,5.20
2022-09-12T19:50:27.691Z,4.15
2022-09-12T19:52:54.195Z,4.70
2022-09-12T19:55:20.748Z,4.38
2022-09-12T19:57:47.186Z,4.50
2022-09-12T20:00:14.102Z,4.25
2022-09-12T20:02:40.563Z,7.25
2022-09-12T20:05:07.306Z,4.57
2022-09-12T20:07:33.692Z,4.35
2022-09-12T20:10:00.241Z,4.35
2022-09-12T20:12:26.823Z,5.05
2022-09-12T20:14:53.187Z,4.63
2022-09-12T20:17:19.579Z,4.25
2022-09-12T20:19:45.956Z,5.75
2022-09-12T20:22:12.344Z,4.70
2022-09-12T20:24:38.750Z,5.10
2022-09-12T20:27:05.130Z,14.45
2022-09-12T20:29:31.558Z,6.40
2022-09-12T20:31:57.944Z,9.20
2022-09-12T20:34:24.375Z,4.40
2022-09-12T20:36:50.783Z,4.50
2022-09-12T20:39:20.759Z,4.70
2022-09-12T20:41:47.270Z,4.90
2022-09-12T20:44:14.067Z,6.43
2022-09-12T20:46:41.313Z,4.40
2022-09-12T20:49:08.812Z,7.63
2022-09-12T20:51:38.240Z,4.60
2022-09-12T20:54:06.555Z,5.07
2022-09-12T20:56:35.236Z,4.57
2022-09-12T20:59:02.230Z,4.43
2022-09-12T21:01:29.936Z,4.60
2022-09-12T21:03:56.664Z,4.47
2022-09-12T21:06:23.331Z,4.63
2022-09-12T21:08:50.789Z,4.88
2022-09-12T21:11:18.692Z,4.32
2022-09-12T21:13:45.652Z,5.00
2022-09-12T21:16:17.066Z,4.45
2022-09-12T21:18:44.362Z,5.15
2022-09-12T21:21:13.046Z,5.18
2022-09-12T21:23:40.652Z,5.22
2022-09-12T21:26:07.531Z,6.70
2022-09-12T21:28:34.248Z,5.03
2022-09-12T21:31:00.815Z,5.72
2022-09-12T21:33:27.984Z,5.38
2022-09-12T21:35:55.223Z,5.30
2022-09-12T21:38:21.651Z,5.55
2022-09-12T21:40:48.061Z,5.50
2022-09-12T21:43:14.791Z,5.57
2022-09-12T21:45:41.188Z,5.10
2022-09-12T21:48:07.693Z,4.60
2022-09-12T21:50:34.410Z,5.10
2022-09-12T21:53:00.830Z,7.60
2022-09-12T21:55:27.354Z,5.72
2022-09-12T21:57:54.703Z,5.45
2022-09-12T22:00:22.160Z,5.57
2022-09-12T22:02:48.639Z,4.88
2022-09-12T22:05:16.094Z,5.07
2022-09-12T22:07:42.548Z,7.15
2022-09-12T22:10:09.355Z,5.60
2022-09-12T22:12:35.736Z,5.30
2022-09-12T22:15:23.083Z,5.75
2022-09-12T22:17:48.526Z,7.80
2022-09-12T22:20:15.044Z,5.43
2022-09-12T22:22:59.771Z,6.63
2022-09-12T22:25:26.143Z,8.50
2022-09-12T22:27:52.846Z,5.60
2022-09-12T22:30:20.838Z,5.50
2022-09-12T22:32:49.587Z,5.65
2022-09-12T22:35:20.800Z,6.15
2022-09-12T22:37:47.779Z,5.35
2022-09-12T22:40:15.490Z,6.18
2022-09-12T22:42:41.996Z,5.45
2022-09-12T22:45:08.936Z,5.47
2022-09-12T22:47:35.898Z,7.07
2022-09-12T22:50:02.321Z,5.47
2022-09-12T22:52:28.754Z,8.00
2022-09-12T22:54:55.123Z,5.28
2022-09-12T22:57:21.615Z,6.18
2022-09-12T22:59:47.978Z,5.85
2022-09-12T23:02:14.419Z,5.65
2022-09-12T23:04:40.838Z,6.40
2022-09-12T23:07:07.349Z,7.03
2022-09-12T23:09:35.519Z,10.55
2022-09-12T23:12:02.570Z,6.95
2022-09-12T23:14:29.043Z,5.38
2022-09-12T23:16:55.537Z,6.75
2022-09-12T23:19:21.884Z,6.18
2022-09-12T23:21:48.436Z,6.88
2022-09-12T23:24:14.843Z,6.00
2022-09-12T23:26:41.257Z,6.32
2022-09-12T23:29:08.709Z,6.20
2022-09-12T23:31:35.133Z,7.05
2022-09-12T23:34:05.695Z,7.18
2022-09-12T23:36:32.863Z,9.55
2022-09-12T23:38:59.268Z,6.90
2022-09-12T23:41:25.691Z,7.22
2022-09-12T23:43:52.157Z,6.38
2022-09-12T23:46:20.357Z,6.72
2022-09-12T23:48:47.033Z,6.13
2022-09-12T23:51:13.916Z,6.32
2022-09-12T23:53:40.988Z,8.45
2022-09-12T23:56:07.404Z,6.03
2022-09-12T23:58:33.873Z,6.20
